This is the latest recevied weather packets stored in our database for station/object DB0BQ-11. If no packets are shown the sender has not sent any weather packets the latest 10 day(s).
| Time | Temp. | Humidity | Pressure | Rain* | Wind** | Luminosity | Snow |
|---|---|---|---|---|---|---|---|
| 1777814423 | 20.56° C | 45% | 1010.9 hPa | - | - | - | - |
| 1777813821 | 20.56° C | 43% | 1010.8 hPa | - | - | - | - |
| 1777807217 | 22.22° C | 38% | 1010.7 hPa | - | - | - | - |
| 1777805431 | 22.78° C | 38% | 1010.7 hPa | - | - | - | - |
| 1777804227 | 22.78° C | 38% | 1010.8 hPa | - | - | - | - |
| 1777801818 | 21.67° C | 43% | 1011 hPa | - | - | - | - |
| 1777801216 | 21.67° C | 45% | 1011 hPa | - | - | - | - |
| 1777799430 | 21.11° C | 47% | 1011.2 hPa | - | - | - | - |
| 1777791019 | 16.67° C | 78% | 1011.2 hPa | - | - | - | - |
| 1777789835 | 15° C | 95% | 1011.3 hPa | - | - | - | - |
| 1777789233 | 14.44° C | 99% | 1011.3 hPa | - | - | - | - |
| 1777785018 | 12.78° C | 99% | 1011.2 hPa | - | - | - | - |
| 1777783252 | 12.78° C | 99% | 1011.3 hPa | - | - | - | - |
| 1777777832 | 13.33° C | 99% | 1011.9 hPa | - | - | - | - |
| 1777774219 | 13.33° C | 99% | 1012.2 hPa | - | - | - | - |
| 1777767053 | 13.89° C | 98% | 1013.7 hPa | - | - | - | - |
| 1777764645 | 13.89° C | 97% | 1013.4 hPa | - | - | - | - |
| 1777762818 | 13.89° C | 97% | 1013.6 hPa | - | - | - | - |
| 1777761032 | 14.44° C | 96% | 1013.9 hPa | - | - | - | - |
| 1777759225 | 14.44° C | 95% | 1013.9 hPa | - | - | - | - |
| 1777757419 | 14.44° C | 95% | 1014.2 hPa | - | - | - | - |
| 1777755030 | 15° C | 94% | 1014.8 hPa | - | - | - | - |
| 1777752622 | 15° C | 90% | 1015.9 hPa | - | - | - | - |
| 1777749651 | 17.78° C | 76% | 1016.2 hPa | - | - | - | - |
| 1777748426 | 18.33° C | 81% | 1014.4 hPa | - | - | - | - |
* Rain since midnight (hover to see other rain measurements)
** Current wind speed in m/s (hover to see current wind gust speed)